Time;durP1;ratioP1;P1;durP2;ratioP2;P2;SDS_P1;SDS_P2;PMS_P1;PMS_P2;Temp;Humidity;BMP_temperature;BMP_pressure;BME280_temperature;BME280_humidity;BME280_pressure;Samples;Min_cycle;Max_cycle;Signal;HPM_P1;HPM_P2
2022/07/09 00:02:52;;;;;;;2.03;1.48;;;;;;;;;;8326985;28;20038;-61
2022/07/09 00:06:53;;;;;;;3.05;1.30;;;;;;;;;;8331755;28;20021;-62
2022/07/09 00:10:53;;;;;;;2.22;1.20;;;;;;;;;;8325688;28;20037;-61
2022/07/09 00:14:53;;;;;;;2.92;1.50;;;;;;;;;;8326919;28;20029;-61
2022/07/09 00:18:53;;;;;;;2.28;1.45;;;;;;;;;;8326958;28;20029;-61
2022/07/09 00:22:54;;;;;;;4.10;1.55;;;;;;;;;;8328930;28;20077;-61
2022/07/09 00:26:55;;;;;;;3.33;1.55;;;;;;;;;;8331027;28;20028;-61
2022/07/09 00:30:55;;;;;;;2.78;1.50;;;;;;;;;;8323866;28;20064;-61
2022/07/09 00:34:55;;;;;;;2.58;1.40;;;;;;;;;;8327349;28;20024;-61
2022/07/09 00:38:55;;;;;;;3.67;1.67;;;;;;;;;;8327752;28;20025;-61
2022/07/09 00:42:55;;;;;;;2.83;1.30;;;;;;;;;;8326723;28;20037;-61
2022/07/09 00:46:57;;;;;;;6.13;1.70;;;;;;;;;;8325376;28;20301;-61
2022/07/09 00:50:57;;;;;;;8.18;1.60;;;;;;;;;;8328054;28;20824;-61
2022/07/09 00:54:59;;;;;;;2.20;1.70;;;;;;;;;;8324408;28;20063;-62
2022/07/09 00:58:59;;;;;;;2.25;1.52;;;;;;;;;;8324565;28;20078;-61
2022/07/09 01:03:00;;;;;;;2.35;1.63;;;;;;;;;;8321577;28;20561;-61
2022/07/09 01:07:01;;;;;;;3.38;1.80;;;;;;;;;;8324956;28;20028;-60
2022/07/09 01:11:01;;;;;;;3.42;1.70;;;;;;;;;;8324261;28;20025;-61
2022/07/09 01:15:01;;;;;;;2.15;1.40;;;;;;;;;;8326233;28;20485;-61
2022/07/09 01:19:01;;;;;;;1.83;1.73;;;;;;;;;;8323456;28;20099;-61
2022/07/09 01:23:02;;;;;;;2.00;1.60;;;;;;;;;;8322240;28;20103;-61
2022/07/09 01:27:02;;;;;;;2.92;1.77;;;;;;;;;;8324030;28;20033;-61
2022/07/09 01:31:03;;;;;;;3.43;1.90;;;;;;;;;;8322151;28;20040;-61
2022/07/09 01:35:03;;;;;;;2.42;1.70;;;;;;;;;;8325921;28;20345;-60
2022/07/09 01:39:04;;;;;;;2.35;1.80;;;;;;;;;;8327460;28;20449;-60
2022/07/09 01:43:04;;;;;;;3.97;1.90;;;;;;;;;;8325155;28;20055;-61
2022/07/09 01:47:04;;;;;;;4.57;1.85;;;;;;;;;;8322985;28;20044;-61
2022/07/09 01:51:04;;;;;;;1.80;1.70;;;;;;;;;;8322644;28;20036;-61
2022/07/09 01:55:05;;;;;;;2.92;1.77;;;;;;;;;;8325293;28;20021;-61
2022/07/09 01:59:05;;;;;;;3.03;1.60;;;;;;;;;;8321193;28;20821;-61
2022/07/09 02:03:05;;;;;;;2.38;1.90;;;;;;;;;;8325809;28;20029;-61
2022/07/09 02:07:06;;;;;;;2.93;1.97;;;;;;;;;;8323027;28;20035;-61
2022/07/09 02:11:06;;;;;;;2.03;1.83;;;;;;;;;;8323850;28;20390;-62
2022/07/09 02:15:07;;;;;;;3.10;2.03;;;;;;;;;;8324037;28;20051;-61
2022/07/09 02:19:08;;;;;;;5.40;1.88;;;;;;;;;;8322785;28;20279;-61
2022/07/09 02:23:08;;;;;;;5.53;1.90;;;;;;;;;;8323138;28;20029;-61
2022/07/09 02:27:08;;;;;;;6.38;2.10;;;;;;;;;;8321335;28;20294;-61
2022/07/09 02:31:09;;;;;;;2.40;1.85;;;;;;;;;;8318716;28;20033;-60
2022/07/09 02:35:09;;;;;;;4.50;1.98;;;;;;;;;;8320888;28;20087;-61
2022/07/09 02:39:09;;;;;;;4.28;2.10;;;;;;;;;;8322365;28;20017;-61
2022/07/09 02:43:09;;;;;;;3.47;1.90;;;;;;;;;;8322680;28;20025;-62
2022/07/09 02:47:10;;;;;;;2.40;2.00;;;;;;;;;;8320286;28;20283;-63
2022/07/09 02:51:10;;;;;;;3.80;1.90;;;;;;;;;;8319068;28;20295;-60
2022/07/09 02:55:10;;;;;;;2.30;1.80;;;;;;;;;;8319914;28;20240;-61
2022/07/09 02:59:10;;;;;;;3.63;1.98;;;;;;;;;;8323400;28;20943;-60
2022/07/09 03:03:11;;;;;;;2.17;1.90;;;;;;;;;;8319391;28;20070;-61
2022/07/09 03:07:11;;;;;;;2.00;1.80;;;;;;;;;;8320233;28;20032;-61
2022/07/09 03:11:11;;;;;;;2.50;1.83;;;;;;;;;;8323076;28;20033;-62
2022/07/09 03:15:14;;;;;;;2.38;2.00;;;;;;;;;;8323562;28;20060;-61
2022/07/09 03:19:14;;;;;;;6.13;2.00;;;;;;;;;;8321336;28;20029;-61
2022/07/09 03:23:14;;;;;;;3.83;2.28;;;;;;;;;;8324921;28;20326;-61
2022/07/09 03:27:15;;;;;;;3.83;1.92;;;;;;;;;;8323394;28;20032;-61
2022/07/09 03:31:15;;;;;;;5.30;2.03;;;;;;;;;;8325990;28;20036;-60
2022/07/09 03:35:15;;;;;;;2.25;2.00;;;;;;;;;;8327206;28;20032;-61
2022/07/09 03:39:15;;;;;;;2.70;1.80;;;;;;;;;;8330611;28;20117;-60
2022/07/09 03:43:16;;;;;;;3.65;2.05;;;;;;;;;;8330251;28;20059;-61
2022/07/09 03:47:16;;;;;;;6.03;2.20;;;;;;;;;;8329052;28;21071;-61
2022/07/09 03:51:16;;;;;;;2.63;1.83;;;;;;;;;;8322113;28;20033;-61
2022/07/09 03:55:17;;;;;;;2.10;1.90;;;;;;;;;;8328672;28;20065;-61
2022/07/09 03:59:17;;;;;;;3.15;1.88;;;;;;;;;;8328814;28;20028;-61
2022/07/09 04:03:17;;;;;;;2.08;1.88;;;;;;;;;;8330317;28;20049;-61
2022/07/09 04:07:18;;;;;;;2.87;1.93;;;;;;;;;;8324387;28;20970;-61
2022/07/09 04:11:18;;;;;;;2.67;1.77;;;;;;;;;;8328505;28;20279;-61
2022/07/09 04:15:18;;;;;;;3.42;1.80;;;;;;;;;;8323905;28;20296;-61
2022/07/09 04:19:18;;;;;;;4.22;1.92;;;;;;;;;;8325990;28;20025;-61
2022/07/09 04:23:18;;;;;;;2.00;1.80;;;;;;;;;;8329222;28;20024;-61
2022/07/09 04:27:20;;;;;;;2.10;1.75;;;;;;;;;;8326149;28;20107;-61
2022/07/09 04:31:21;;;;;;;2.58;1.88;;;;;;;;;;8325506;28;20143;-60
2022/07/09 04:35:21;;;;;;;1.88;1.75;;;;;;;;;;8326930;28;20086;-61
2022/07/09 04:39:24;;;;;;;2.83;1.90;;;;;;;;;;8326490;28;20021;-61
2022/07/09 04:43:24;;;;;;;2.60;1.70;;;;;;;;;;8329618;28;20255;-61
2022/07/09 04:47:24;;;;;;;3.08;1.70;;;;;;;;;;8327682;28;20171;-61
2022/07/09 04:51:25;;;;;;;2.35;1.70;;;;;;;;;;8322966;28;20029;-61
2022/07/09 04:55:25;;;;;;;5.00;2.20;;;;;;;;;;8325616;28;20060;-61
2022/07/09 04:59:25;;;;;;;3.75;2.08;;;;;;;;;;8325228;28;20017;-61
2022/07/09 05:03:26;;;;;;;3.90;2.17;;;;;;;;;;8326331;28;20372;-61
2022/07/09 05:07:26;;;;;;;4.25;1.92;;;;;;;;;;8326513;28;20497;-61
2022/07/09 05:11:26;;;;;;;3.90;2.17;;;;;;;;;;8324393;28;20043;-60
2022/07/09 05:15:27;;;;;;;3.83;2.10;;;;;;;;;;8323449;28;20110;-61
2022/07/09 05:19:27;;;;;;;2.90;1.92;;;;;;;;;;8325956;28;20032;-61
2022/07/09 05:23:28;;;;;;;2.72;1.90;;;;;;;;;;8326386;28;20025;-62
2022/07/09 05:27:29;;;;;;;3.75;2.08;;;;;;;;;;8327494;28;20033;-61
2022/07/09 05:31:29;;;;;;;3.87;2.00;;;;;;;;;;8324937;28;20037;-61
2022/07/09 05:35:29;;;;;;;2.53;1.60;;;;;;;;;;8325790;28;20024;-61
2022/07/09 05:39:30;;;;;;;3.53;2.00;;;;;;;;;;8325991;28;20863;-61
2022/07/09 05:43:30;;;;;;;7.55;1.83;;;;;;;;;;8322677;28;20282;-61
2022/07/09 05:47:31;;;;;;;3.17;1.80;;;;;;;;;;8324244;28;20048;-61
2022/07/09 05:51:31;;;;;;;4.85;1.80;;;;;;;;;;8321581;28;20309;-62
2022/07/09 05:55:31;;;;;;;2.85;1.50;;;;;;;;;;8322726;28;20052;-61
2022/07/09 05:59:31;;;;;;;2.75;1.60;;;;;;;;;;8318088;28;20025;-61
2022/07/09 06:03:31;;;;;;;3.38;1.65;;;;;;;;;;8315835;28;20105;-62
2022/07/09 06:07:33;;;;;;;2.97;1.80;;;;;;;;;;8322394;28;20033;-61
2022/07/09 06:11:33;;;;;;;5.93;1.60;;;;;;;;;;8318673;28;20047;-61
2022/07/09 06:15:33;;;;;;;4.33;1.87;;;;;;;;;;8316549;28;20499;-61
2022/07/09 06:19:34;;;;;;;4.63;1.45;;;;;;;;;;8320053;28;20275;-61
2022/07/09 06:23:34;;;;;;;4.28;1.90;;;;;;;;;;8318993;28;20014;-61
2022/07/09 06:27:35;;;;;;;4.22;2.17;;;;;;;;;;8317331;28;20458;-61
2022/07/09 06:31:35;;;;;;;4.25;1.70;;;;;;;;;;8319424;28;20126;-61
2022/07/09 06:35:35;;;;;;;3.72;1.48;;;;;;;;;;8323299;28;20882;-60
2022/07/09 06:39:44;;;;;;;3.87;1.50;;;;;;;;;;8319567;28;20087;-61
2022/07/09 06:43:44;;;;;;;3.10;1.30;;;;;;;;;;8318640;28;20031;-61
2022/07/09 06:47:44;;;;;;;4.80;1.43;;;;;;;;;;8318373;28;20033;-61
2022/07/09 06:51:45;;;;;;;2.38;1.65;;;;;;;;;;8318339;28;20017;-61
2022/07/09 06:55:45;;;;;;;3.87;1.57;;;;;;;;;;8315020;28;20032;-61
2022/07/09 06:59:45;;;;;;;2.55;1.80;;;;;;;;;;8314602;28;20034;-61
2022/07/09 07:03:46;;;;;;;3.67;2.10;;;;;;;;;;8322336;28;20119;-61
2022/07/09 07:07:47;;;;;;;4.18;2.63;;;;;;;;;;8328756;28;20918;-62
2022/07/09 07:11:48;;;;;;;5.95;2.60;;;;;;;;;;8325746;28;20045;-62
2022/07/09 07:15:49;;;;;;;4.32;1.77;;;;;;;;;;8322906;28;20445;-61
2022/07/09 07:19:49;;;;;;;6.00;2.25;;;;;;;;;;8325953;28;20110;-61
2022/07/09 07:23:49;;;;;;;2.85;1.63;;;;;;;;;;8325826;28;20013;-62
2022/07/09 07:27:49;;;;;;;6.10;2.00;;;;;;;;;;8323701;28;20326;-61
2022/07/09 07:31:50;;;;;;;3.93;2.00;;;;;;;;;;8319058;28;20033;-61
2022/07/09 07:35:51;;;;;;;3.30;1.42;;;;;;;;;;8323617;28;20021;-61
2022/07/09 07:39:51;;;;;;;1.95;1.50;;;;;;;;;;8321371;28;20017;-61
2022/07/09 07:43:51;;;;;;;5.22;1.70;;;;;;;;;;8323558;28;20033;-62
2022/07/09 07:47:54;;;;;;;2.72;1.27;;;;;;;;;;8324003;28;20044;-61
2022/07/09 07:51:54;;;;;;;2.42;1.42;;;;;;;;;;8322019;28;20064;-61
2022/07/09 07:55:54;;;;;;;5.37;1.47;;;;;;;;;;8323657;28;20048;-61
2022/07/09 07:59:55;;;;;;;7.13;2.10;;;;;;;;;;8323101;28;20048;-61
2022/07/09 08:03:55;;;;;;;3.40;1.80;;;;;;;;;;8323760;28;20094;-61
2022/07/09 08:07:55;;;;;;;3.03;1.60;;;;;;;;;;8320791;28;20035;-61
2022/07/09 08:11:55;;;;;;;2.17;1.20;;;;;;;;;;8321764;28;20031;-61
2022/07/09 08:15:55;;;;;;;3.08;1.40;;;;;;;;;;8317389;28;20037;-61
2022/07/09 08:19:56;;;;;;;2.05;1.27;;;;;;;;;;8316947;28;20052;-61
2022/07/09 08:23:56;;;;;;;2.43;1.63;;;;;;;;;;8308618;28;20234;-61
2022/07/09 08:27:57;;;;;;;3.63;1.38;;;;;;;;;;8315744;28;20056;-61
2022/07/09 08:31:57;;;;;;;3.30;1.52;;;;;;;;;;8314339;28;20337;-61
2022/07/09 08:35:57;;;;;;;3.72;1.50;;;;;;;;;;8315967;28;20064;-61
2022/07/09 08:39:57;;;;;;;4.22;1.60;;;;;;;;;;8312455;28;20230;-61
2022/07/09 08:43:57;;;;;;;2.03;1.23;;;;;;;;;;8315860;28;20025;-61
2022/07/09 08:48:00;;;;;;;1.43;1.07;;;;;;;;;;8311371;28;20080;-61
2022/07/09 08:52:01;;;;;;;3.35;1.20;;;;;;;;;;8318036;28;20928;-60
2022/07/09 08:56:02;;;;;;;3.67;1.23;;;;;;;;;;8315986;28;20110;-61
2022/07/09 09:00:21;;;;;;;3.10;1.40;;;;;;;;;;8345059;28;20025;-61
2022/07/09 09:04:22;;;;;;;4.13;1.30;;;;;;;;;;8328439;28;20093;-60
2022/07/09 09:08:23;;;;;;;2.05;1.33;;;;;;;;;;8321298;28;20494;-60
2022/07/09 09:12:27;;;;;;;3.03;1.50;;;;;;;;;;8324403;28;21055;-60
2022/07/09 09:16:27;;;;;;;4.57;1.33;;;;;;;;;;8320326;28;20968;-61
2022/07/09 09:20:28;;;;;;;2.88;1.30;;;;;;;;;;8320467;28;20081;-61
2022/07/09 09:24:29;;;;;;;3.00;1.40;;;;;;;;;;8323060;28;20028;-61
2022/07/09 09:28:29;;;;;;;2.20;1.30;;;;;;;;;;8323757;28;20501;-61
2022/07/09 09:32:29;;;;;;;2.05;1.10;;;;;;;;;;8322517;28;20379;-62
2022/07/09 09:36:40;;;;;;;3.80;1.10;;;;;;;;;;8326901;28;20021;-62
2022/07/09 09:40:44;;;;;;;3.13;1.15;;;;;;;;;;8320979;28;20130;-62
2022/07/09 09:44:48;;;;;;;2.13;1.27;;;;;;;;;;8321138;28;20773;-62
2022/07/09 09:48:50;;;;;;;2.33;1.20;;;;;;;;;;8323194;28;20159;-64
2022/07/09 09:52:51;;;;;;;4.53;1.38;;;;;;;;;;8315524;28;20481;-61
2022/07/09 09:56:51;;;;;;;2.17;1.30;;;;;;;;;;8317260;28;20604;-61
2022/07/09 10:00:52;;;;;;;4.70;1.27;;;;;;;;;;8317519;28;20146;-62
2022/07/09 10:04:52;;;;;;;2.53;1.20;;;;;;;;;;8315193;28;20018;-62
2022/07/09 10:08:54;;;;;;;2.35;1.10;;;;;;;;;;8320606;28;20258;-62
2022/07/09 10:12:54;;;;;;;5.38;1.30;;;;;;;;;;8317507;28;20037;-61
2022/07/09 10:16:54;;;;;;;3.72;1.20;;;;;;;;;;8317461;28;20454;-61
2022/07/09 10:20:56;;;;;;;2.15;1.20;;;;;;;;;;8321833;28;20021;-63
2022/07/09 10:24:56;;;;;;;3.90;1.42;;;;;;;;;;8318783;28;20069;-61
2022/07/09 10:28:57;;;;;;;3.87;1.20;;;;;;;;;;8321369;28;20037;-61
2022/07/09 10:33:13;;;;;;;2.00;1.10;;;;;;;;;;8321149;28;20037;-61
2022/07/09 10:37:14;;;;;;;2.75;1.13;;;;;;;;;;8318172;28;20025;-63
2022/07/09 10:41:20;;;;;;;2.85;1.10;;;;;;;;;;8319726;28;20318;-63
2022/07/09 10:45:22;;;;;;;1.42;1.08;;;;;;;;;;8319122;28;20356;-59
2022/07/09 10:49:22;;;;;;;2.67;1.27;;;;;;;;;;8321013;28;20147;-61
2022/07/09 10:53:28;;;;;;;5.57;1.20;;;;;;;;;;8320380;28;20341;-61
2022/07/09 10:57:28;;;;;;;3.05;1.08;;;;;;;;;;8322867;28;20033;-61
2022/07/09 11:01:29;;;;;;;1.20;1.10;;;;;;;;;;8316135;28;20084;-60
2022/07/09 11:05:34;;;;;;;1.42;1.17;;;;;;;;;;8322151;28;20028;-61
2022/07/09 11:09:34;;;;;;;1.20;1.10;;;;;;;;;;8318807;28;20135;-60
2022/07/09 11:13:35;;;;;;;1.30;0.97;;;;;;;;;;8315955;28;20645;-62
2022/07/09 11:17:35;;;;;;;4.10;1.00;;;;;;;;;;8318370;28;20867;-62
2022/07/09 11:21:35;;;;;;;0.80;0.80;;;;;;;;;;8319265;28;20137;-61
2022/07/09 11:25:35;;;;;;;1.05;0.80;;;;;;;;;;8317868;28;20055;-61
2022/07/09 11:29:36;;;;;;;3.23;1.20;;;;;;;;;;8318752;28;20033;-60
2022/07/09 11:37:59;;;;;;;3.45;1.00;;;;;;;;;;8318538;28;20083;-60
2022/07/09 11:42:00;;;;;;;2.78;0.85;;;;;;;;;;8316810;28;20021;-60
2022/07/09 11:46:01;;;;;;;2.05;0.80;;;;;;;;;;8315768;28;20632;-60
2022/07/09 11:50:11;;;;;;;0.63;0.60;;;;;;;;;;8320563;28;20540;-60
2022/07/09 11:54:11;;;;;;;2.22;0.85;;;;;;;;;;8321803;28;20710;-61
2022/07/09 11:58:13;;;;;;;1.23;0.70;;;;;;;;;;8326326;28;20101;-61
2022/07/09 12:02:23;;;;;;;2.17;0.90;;;;;;;;;;8325703;28;20489;-61
2022/07/09 12:06:23;;;;;;;2.72;0.70;;;;;;;;;;8321764;28;20028;-61
2022/07/09 12:10:29;;;;;;;0.63;0.60;;;;;;;;;;8323105;28;20028;-61
2022/07/09 12:14:29;;;;;;;2.53;0.70;;;;;;;;;;8334961;28;20036;-61
2022/07/09 12:18:29;;;;;;;0.77;0.63;;;;;;;;;;8324777;28;20052;-61
2022/07/09 12:22:29;;;;;;;0.80;0.80;;;;;;;;;;8320642;28;20017;-61
2022/07/09 12:26:30;;;;;;;0.65;0.65;;;;;;;;;;8321693;28;20063;-61
2022/07/09 12:30:30;;;;;;;0.73;0.70;;;;;;;;;;8320251;28;20037;-62
2022/07/09 12:34:31;;;;;;;0.87;0.80;;;;;;;;;;8323455;28;20549;-61
2022/07/09 12:38:31;;;;;;;1.52;0.80;;;;;;;;;;8323429;28;20367;-62
2022/07/09 12:42:32;;;;;;;0.80;0.80;;;;;;;;;;8321259;28;20050;-62
2022/07/09 12:46:32;;;;;;;1.63;0.90;;;;;;;;;;8326187;28;20127;-61
2022/07/09 12:50:32;;;;;;;1.30;0.90;;;;;;;;;;8324063;28;20012;-61
2022/07/09 12:54:32;;;;;;;1.35;1.00;;;;;;;;;;8322483;28;20103;-61
2022/07/09 12:58:33;;;;;;;2.57;1.07;;;;;;;;;;8323320;28;20025;-61
2022/07/09 13:02:33;;;;;;;2.97;0.80;;;;;;;;;;8324213;28;20025;-61
2022/07/09 13:06:33;;;;;;;1.17;0.90;;;;;;;;;;8324220;28;20286;-61
2022/07/09 13:10:34;;;;;;;1.70;1.00;;;;;;;;;;8321181;28;20449;-61
2022/07/09 13:14:34;;;;;;;2.77;1.00;;;;;;;;;;8320119;28;20024;-61
2022/07/09 13:18:34;;;;;;;0.95;0.82;;;;;;;;;;8320814;28;20090;-61
2022/07/09 13:22:34;;;;;;;1.03;0.90;;;;;;;;;;8319727;28;20398;-62
2022/07/09 13:26:34;;;;;;;1.23;1.00;;;;;;;;;;8324246;28;20055;-60
2022/07/09 13:30:35;;;;;;;1.23;0.80;;;;;;;;;;8321288;28;20573;-60
2022/07/09 13:34:35;;;;;;;1.00;0.90;;;;;;;;;;8318285;28;20585;-60
2022/07/09 13:38:35;;;;;;;1.00;0.80;;;;;;;;;;8321757;28;20206;-60
2022/07/09 13:42:35;;;;;;;1.00;0.83;;;;;;;;;;8323588;28;20021;-60
2022/07/09 13:46:35;;;;;;;0.80;0.80;;;;;;;;;;8320400;28;20029;-61
2022/07/09 13:50:39;;;;;;;0.90;0.80;;;;;;;;;;8320106;28;20025;-61
2022/07/09 13:54:39;;;;;;;2.40;0.95;;;;;;;;;;8322093;28;20029;-60
2022/07/09 13:58:40;;;;;;;0.73;0.73;;;;;;;;;;8320892;28;20024;-60
2022/07/09 14:02:40;;;;;;;2.65;1.00;;;;;;;;;;8317560;28;20045;-60
2022/07/09 14:06:41;;;;;;;2.50;1.00;;;;;;;;;;8316767;28;20035;-60
2022/07/09 14:10:41;;;;;;;1.25;0.80;;;;;;;;;;8321871;28;20032;-61
2022/07/09 14:14:41;;;;;;;0.77;0.77;;;;;;;;;;8320679;28;20553;-60
2022/07/09 14:18:41;;;;;;;1.27;0.80;;;;;;;;;;8319580;28;20156;-60
2022/07/09 14:22:41;;;;;;;1.00;0.90;;;;;;;;;;8322435;28;20030;-60
2022/07/09 14:26:43;;;;;;;1.05;0.93;;;;;;;;;;8320393;28;21021;-60
2022/07/09 14:30:44;;;;;;;2.70;1.00;;;;;;;;;;8321027;28;20025;-60
2022/07/09 14:34:44;;;;;;;1.13;0.90;;;;;;;;;;8324418;28;20024;-60
2022/07/09 14:38:44;;;;;;;2.58;1.10;;;;;;;;;;8321113;28;20021;-61
2022/07/09 14:42:45;;;;;;;1.85;1.00;;;;;;;;;;8323564;28;20028;-61
2022/07/09 14:46:45;;;;;;;1.00;0.90;;;;;;;;;;8323035;28;20127;-60
2022/07/09 14:50:45;;;;;;;1.90;1.03;;;;;;;;;;8318018;28;20017;-60
2022/07/09 14:54:45;;;;;;;1.37;1.00;;;;;;;;;;8319998;28;20029;-61
2022/07/09 14:58:46;;;;;;;3.50;1.07;;;;;;;;;;8309841;28;20079;-60
2022/07/09 15:02:46;;;;;;;1.10;0.80;;;;;;;;;;8319411;28;20127;-61
2022/07/09 15:06:46;;;;;;;3.00;1.07;;;;;;;;;;8322363;28;20074;-61
2022/07/09 15:10:46;;;;;;;2.78;1.10;;;;;;;;;;8321540;28;20022;-60
2022/07/09 15:14:47;;;;;;;2.10;1.10;;;;;;;;;;8319498;28;20424;-60
2022/07/09 15:18:47;;;;;;;2.47;1.10;;;;;;;;;;8319115;28;20037;-61
2022/07/09 15:22:47;;;;;;;1.00;1.00;;;;;;;;;;8322639;28;20049;-61
2022/07/09 15:26:49;;;;;;;1.40;0.95;;;;;;;;;;8324405;28;20552;-60
2022/07/09 15:30:49;;;;;;;1.52;1.00;;;;;;;;;;8324442;28;20056;-60
2022/07/09 15:34:49;;;;;;;1.67;1.10;;;;;;;;;;8325500;28;20029;-60
2022/07/09 15:38:49;;;;;;;1.52;1.00;;;;;;;;;;8325780;28;20225;-60
2022/07/09 15:42:49;;;;;;;1.45;0.90;;;;;;;;;;8325435;28;21331;-60
2022/07/09 15:46:50;;;;;;;1.27;1.10;;;;;;;;;;8327125;28;20069;-61
2022/07/09 15:50:50;;;;;;;1.10;1.00;;;;;;;;;;8327415;28;20061;-60
2022/07/09 15:54:50;;;;;;;2.03;1.20;;;;;;;;;;8327194;28;20120;-61
2022/07/09 15:58:51;;;;;;;4.50;1.25;;;;;;;;;;8328465;28;20033;-61
2022/07/09 16:02:54;;;;;;;1.00;0.90;;;;;;;;;;8324634;28;20153;-61
2022/07/09 16:06:54;;;;;;;2.30;1.05;;;;;;;;;;8322641;28;20296;-61
2022/07/09 16:10:55;;;;;;;1.05;0.95;;;;;;;;;;8326438;28;20135;-60
2022/07/09 16:14:55;;;;;;;3.60;1.00;;;;;;;;;;8330315;28;20091;-61
2022/07/09 16:18:55;;;;;;;0.95;0.90;;;;;;;;;;8326848;28;20308;-60
2022/07/09 16:22:55;;;;;;;1.00;0.90;;;;;;;;;;8325487;28;20023;-60
2022/07/09 16:26:56;;;;;;;2.97;0.80;;;;;;;;;;8325191;28;20766;-60
2022/07/09 16:30:56;;;;;;;2.30;0.90;;;;;;;;;;8325193;28;20024;-60
2022/07/09 16:34:56;;;;;;;0.80;0.80;;;;;;;;;;8325771;28;20028;-61
2022/07/09 16:38:56;;;;;;;0.93;0.90;;;;;;;;;;8326576;28;20033;-61
2022/07/09 16:42:56;;;;;;;1.10;1.00;;;;;;;;;;8322820;28;20313;-61
2022/07/09 16:46:57;;;;;;;1.00;0.90;;;;;;;;;;8324794;28;20041;-60
2022/07/09 16:50:57;;;;;;;2.13;1.08;;;;;;;;;;8323861;28;20012;-60
2022/07/09 16:54:57;;;;;;;1.08;0.90;;;;;;;;;;8325364;28;20612;-61
2022/07/09 16:58:57;;;;;;;3.67;0.95;;;;;;;;;;8326602;28;20029;-60
2022/07/09 17:02:58;;;;;;;6.55;1.20;;;;;;;;;;8325295;28;20118;-61
2022/07/09 17:06:58;;;;;;;5.30;1.20;;;;;;;;;;8325820;28;20016;-61
2022/07/09 17:10:58;;;;;;;4.30;1.13;;;;;;;;;;8325067;28;20031;-61
2022/07/09 17:15:01;;;;;;;3.60;1.30;;;;;;;;;;8323109;28;20917;-61
2022/07/09 17:19:01;;;;;;;4.30;1.30;;;;;;;;;;8320731;28;20063;-60
2022/07/09 17:23:02;;;;;;;1.80;1.40;;;;;;;;;;8323223;28;20025;-61
2022/07/09 17:27:02;;;;;;;1.23;1.17;;;;;;;;;;8325342;28;20043;-60
2022/07/09 17:31:02;;;;;;;2.80;1.40;;;;;;;;;;8325328;28;20040;-61
2022/07/09 17:35:03;;;;;;;2.03;1.48;;;;;;;;;;8324969;28;20028;-60
2022/07/09 17:39:03;;;;;;;1.50;1.40;;;;;;;;;;8327019;28;20013;-60
2022/07/09 17:43:03;;;;;;;1.50;1.40;;;;;;;;;;8325893;28;20052;-60
2022/07/09 17:47:03;;;;;;;1.35;1.23;;;;;;;;;;8320816;28;20025;-60
2022/07/09 17:51:04;;;;;;;1.92;1.48;;;;;;;;;;8324433;28;20025;-61
2022/07/09 17:55:20;;;;;;;1.48;1.35;;;;;;;;;;8324517;28;20025;-60
2022/07/09 17:59:20;;;;;;;1.50;1.40;;;;;;;;;;8325539;28;20503;-60
2022/07/09 18:03:20;;;;;;;1.95;1.40;;;;;;;;;;8322278;28;20033;-60
2022/07/09 18:07:20;;;;;;;1.85;1.60;;;;;;;;;;8325484;28;20036;-61
2022/07/09 18:11:21;;;;;;;2.47;1.63;;;;;;;;;;8322468;28;20040;-61
2022/07/09 18:15:21;;;;;;;2.47;1.90;;;;;;;;;;8319836;28;20060;-61
2022/07/09 18:19:21;;;;;;;1.60;1.50;;;;;;;;;;8323761;28;20021;-62
2022/07/09 18:23:21;;;;;;;1.90;1.70;;;;;;;;;;8323746;28;20541;-61
2022/07/09 18:27:22;;;;;;;2.30;1.70;;;;;;;;;;8324058;28;20044;-61
2022/07/09 18:31:22;;;;;;;3.28;1.80;;;;;;;;;;8318585;28;20045;-61
2022/07/09 18:35:22;;;;;;;2.42;2.00;;;;;;;;;;8325542;28;20025;-61
2022/07/09 18:39:22;;;;;;;2.20;2.00;;;;;;;;;;8321652;28;20032;-61
2022/07/09 18:43:22;;;;;;;3.70;2.13;;;;;;;;;;8323625;28;20033;-62
2022/07/09 18:47:23;;;;;;;3.03;2.38;;;;;;;;;;8321705;28;20033;-61
2022/07/09 18:51:23;;;;;;;3.15;2.20;;;;;;;;;;8322973;28;20021;-61
2022/07/09 18:55:25;;;;;;;2.10;2.00;;;;;;;;;;8323476;28;20028;-61
2022/07/09 18:59:25;;;;;;;2.42;2.13;;;;;;;;;;8323585;28;20047;-60
2022/07/09 19:03:26;;;;;;;3.13;2.13;;;;;;;;;;8321196;28;20045;-61
2022/07/09 19:07:26;;;;;;;2.45;2.10;;;;;;;;;;8325160;28;20033;-61
2022/07/09 19:11:26;;;;;;;2.90;2.00;;;;;;;;;;8321961;28;20163;-60
2022/07/09 19:15:26;;;;;;;2.38;2.13;;;;;;;;;;8317035;28;20041;-60
2022/07/09 19:19:27;;;;;;;2.93;2.00;;;;;;;;;;8319648;28;20474;-61
2022/07/09 19:23:27;;;;;;;2.58;2.03;;;;;;;;;;8324394;28;20032;-61
2022/07/09 19:27:27;;;;;;;2.30;2.08;;;;;;;;;;8320322;28;20025;-61
2022/07/09 19:35:46;;;;;;;5.03;2.28;;;;;;;;;;8323879;28;20769;-60
2022/07/09 19:39:46;;;;;;;2.40;2.20;;;;;;;;;;8318079;28;20049;-61
2022/07/09 19:43:46;;;;;;;2.83;2.10;;;;;;;;;;8321277;28;20440;-61
2022/07/09 19:47:47;;;;;;;6.03;2.20;;;;;;;;;;8319176;28;20060;-61
2022/07/09 19:51:47;;;;;;;3.25;2.95;;;;;;;;;;8324108;28;20037;-61
2022/07/09 19:55:47;;;;;;;3.83;2.67;;;;;;;;;;8319484;28;20025;-60
2022/07/09 19:59:47;;;;;;;3.00;2.22;;;;;;;;;;8320391;28;20025;-60
2022/07/09 20:03:47;;;;;;;2.60;2.40;;;;;;;;;;8320627;28;20074;-60
2022/07/09 20:07:48;;;;;;;3.10;2.40;;;;;;;;;;8323370;28;20029;-61
2022/07/09 20:11:48;;;;;;;3.55;2.63;;;;;;;;;;8326245;28;20025;-61
2022/07/09 20:15:48;;;;;;;3.53;2.77;;;;;;;;;;8323891;28;20781;-60
2022/07/09 20:19:48;;;;;;;2.87;2.50;;;;;;;;;;8325913;28;20641;-60
2022/07/09 20:23:49;;;;;;;2.75;2.50;;;;;;;;;;8324457;28;20578;-61
2022/07/09 20:27:50;;;;;;;3.70;2.85;;;;;;;;;;8326613;28;20389;-60
2022/07/09 20:31:50;;;;;;;2.90;2.58;;;;;;;;;;8323969;28;20029;-61
2022/07/09 20:35:50;;;;;;;2.63;2.42;;;;;;;;;;8325648;28;20351;-60
2022/07/09 20:39:51;;;;;;;3.15;2.80;;;;;;;;;;8323909;28;20013;-61
2022/07/09 20:43:51;;;;;;;3.13;2.55;;;;;;;;;;8325636;28;20041;-61
2022/07/09 20:47:51;;;;;;;2.67;2.45;;;;;;;;;;8325919;28;20037;-60
2022/07/09 20:51:51;;;;;;;3.00;2.75;;;;;;;;;;8326307;28;20036;-60
2022/07/09 20:55:52;;;;;;;2.80;2.53;;;;;;;;;;8327071;28;20034;-60
2022/07/09 20:59:52;;;;;;;3.33;2.65;;;;;;;;;;8324233;28;20122;-60
2022/07/09 21:03:53;;;;;;;3.13;2.42;;;;;;;;;;8322601;28;20520;-60
2022/07/09 21:07:53;;;;;;;2.57;2.20;;;;;;;;;;8323910;28;20074;-61
2022/07/09 21:11:53;;;;;;;2.47;2.28;;;;;;;;;;8326894;28;20335;-61
2022/07/09 21:15:53;;;;;;;4.22;3.13;;;;;;;;;;8325875;28;20108;-60
2022/07/09 21:19:53;;;;;;;3.25;3.03;;;;;;;;;;8326047;28;20135;-60
2022/07/09 21:23:53;;;;;;;3.25;2.92;;;;;;;;;;8326079;28;20092;-60
2022/07/09 21:27:54;;;;;;;3.53;2.72;;;;;;;;;;8325619;28;20032;-60
2022/07/09 21:31:56;;;;;;;3.08;2.78;;;;;;;;;;8325614;28;20653;-61
2022/07/09 21:35:56;;;;;;;5.65;3.30;;;;;;;;;;8321202;28;20161;-61
2022/07/09 21:39:57;;;;;;;3.60;2.80;;;;;;;;;;8325176;28;20496;-60
2022/07/09 21:43:57;;;;;;;3.97;2.90;;;;;;;;;;8323067;28;20023;-61
2022/07/09 21:47:59;;;;;;;3.20;2.90;;;;;;;;;;8323321;28;20159;-60
2022/07/09 21:51:59;;;;;;;4.68;3.60;;;;;;;;;;8324263;28;20024;-60
2022/07/09 21:56:00;;;;;;;4.60;3.00;;;;;;;;;;8323799;28;20021;-60
2022/07/09 22:00:00;;;;;;;4.22;2.35;;;;;;;;;;8322546;28;20070;-60
2022/07/09 22:04:01;;;;;;;3.88;2.40;;;;;;;;;;8320804;28;20032;-60
2022/07/09 22:08:01;;;;;;;2.53;2.17;;;;;;;;;;8322681;28;20402;-60
2022/07/09 22:12:02;;;;;;;2.40;2.20;;;;;;;;;;8318052;28;21070;-60
2022/07/09 22:16:02;;;;;;;2.30;2.10;;;;;;;;;;8316869;28;20076;-60
2022/07/09 22:20:02;;;;;;;2.88;2.10;;;;;;;;;;8320919;28;20036;-60
2022/07/09 22:24:03;;;;;;;2.97;2.28;;;;;;;;;;8321799;28;20119;-60
2022/07/09 22:28:03;;;;;;;3.28;2.35;;;;;;;;;;8321702;28;20563;-60
2022/07/09 22:32:03;;;;;;;4.03;2.10;;;;;;;;;;8319392;28;20044;-60
2022/07/09 22:36:04;;;;;;;3.93;2.20;;;;;;;;;;8321879;28;20017;-60
2022/07/09 22:40:05;;;;;;;3.55;1.88;;;;;;;;;;8319101;28;20284;-60
2022/07/09 22:44:05;;;;;;;2.10;1.80;;;;;;;;;;8324248;28;20024;-61
2022/07/09 22:48:05;;;;;;;5.13;1.70;;;;;;;;;;8320757;28;20036;-61
2022/07/09 22:52:06;;;;;;;2.03;1.70;;;;;;;;;;8323741;28;20017;-60
2022/07/09 22:56:06;;;;;;;3.60;1.85;;;;;;;;;;8321512;28;20323;-60
2022/07/09 23:00:07;;;;;;;3.30;1.50;;;;;;;;;;8322782;28;20383;-60
2022/07/09 23:04:07;;;;;;;3.60;1.52;;;;;;;;;;8320806;28;20286;-60
2022/07/09 23:12:27;;;;;;;2.47;1.45;;;;;;;;;;8323085;28;20039;-60
2022/07/09 23:16:28;;;;;;;2.95;1.40;;;;;;;;;;8318379;28;20077;-60
2022/07/09 23:20:28;;;;;;;2.03;1.25;;;;;;;;;;8321232;28;20743;-59
2022/07/09 23:24:28;;;;;;;2.92;1.45;;;;;;;;;;8318046;28;20029;-60
2022/07/09 23:28:28;;;;;;;1.63;1.23;;;;;;;;;;8322260;28;20119;-60
2022/07/09 23:32:28;;;;;;;3.08;1.30;;;;;;;;;;8315550;28;20072;-60
2022/07/09 23:36:28;;;;;;;1.67;1.40;;;;;;;;;;8321419;28;20123;-61
2022/07/09 23:40:29;;;;;;;3.65;1.45;;;;;;;;;;8317639;28;20017;-60
2022/07/09 23:44:29;;;;;;;2.20;1.25;;;;;;;;;;8322310;28;20494;-61
2022/07/09 23:48:29;;;;;;;2.42;1.50;;;;;;;;;;8325417;28;20997;-60
2022/07/09 23:52:29;;;;;;;2.10;1.50;;;;;;;;;;8327159;28;20078;-60
2022/07/09 23:56:29;;;;;;;2.67;1.50;;;;;;;;;;8325870;28;20084;-60
